sensor_id;sensor_type;location;lat;lon;timestamp;pressure;altitude;pressure_sealevel;temperature;humidity
61357;BME280;47227;46.752;23.576;2023-05-02T00:00:56;96608.52;;;9.76;53.36
61357;BME280;47227;46.752;23.576;2023-05-02T00:03:24;96605.60;;;9.66;56.04
61357;BME280;47227;46.752;23.576;2023-05-02T00:05:51;96610.70;;;9.53;57.15
61357;BME280;47227;46.752;23.576;2023-05-02T00:08:17;96607.27;;;9.42;56.31
61357;BME280;47227;46.752;23.576;2023-05-02T00:10:44;96612.11;;;9.33;55.49
61357;BME280;47227;46.752;23.576;2023-05-02T00:13:11;96610.23;;;9.25;57.66
61357;BME280;47227;46.752;23.576;2023-05-02T00:15:37;96615.91;;;9.17;60.79
61357;BME280;47227;46.752;23.576;2023-05-02T00:18:04;96613.83;;;9.07;60.13
61357;BME280;47227;46.752;23.576;2023-05-02T04:54:33;96752.27;;;7.54;68.52
61357;BME280;47227;46.752;23.576;2023-05-02T04:57:01;96751.96;;;7.62;68.32
61357;BME280;47227;46.752;23.576;2023-05-02T04:59:32;96743.00;;;7.69;68.35
61357;BME280;47227;46.752;23.576;2023-05-02T05:02:02;96747.14;;;7.81;68.50
61357;BME280;47227;46.752;23.576;2023-05-02T05:04:31;96745.77;;;7.92;68.37
61357;BME280;47227;46.752;23.576;2023-05-02T05:07:02;96751.89;;;8.05;68.24
61357;BME280;47227;46.752;23.576;2023-05-02T05:09:31;96757.34;;;8.15;69.36
61357;BME280;47227;46.752;23.576;2023-05-02T05:11:59;96755.66;;;8.25;68.50
61357;BME280;47227;46.752;23.576;2023-05-02T05:14:29;96757.77;;;8.33;68.75
61357;BME280;47227;46.752;23.576;2023-05-02T05:16:58;96755.06;;;8.42;68.24
61357;BME280;47227;46.752;23.576;2023-05-02T05:19:26;96757.41;;;8.52;68.03
61357;BME280;47227;46.752;23.576;2023-05-02T05:21:56;96754.86;;;8.58;67.91
61357;BME280;47227;46.752;23.576;2023-05-02T05:24:24;96755.63;;;8.64;67.81
61357;BME280;47227;46.752;23.576;2023-05-02T05:26:53;96762.06;;;8.70;67.50
61357;BME280;47227;46.752;23.576;2023-05-02T05:29:22;96759.40;;;8.76;67.08
61357;BME280;47227;46.752;23.576;2023-05-02T05:31:50;96762.83;;;8.81;67.04
61357;BME280;47227;46.752;23.576;2023-05-02T05:34:20;96764.56;;;8.86;66.93
61357;BME280;47227;46.752;23.576;2023-05-02T05:36:50;96764.72;;;8.91;66.97
61357;BME280;47227;46.752;23.576;2023-05-02T05:39:19;96760.94;;;8.95;66.57
61357;BME280;47227;46.752;23.576;2023-05-02T05:41:49;96761.56;;;9.01;67.03
61357;BME280;47227;46.752;23.576;2023-05-02T05:44:17;96757.20;;;9.07;67.76
61357;BME280;47227;46.752;23.576;2023-05-02T05:46:48;96758.98;;;9.16;67.56
61357;BME280;47227;46.752;23.576;2023-05-02T05:49:17;96757.57;;;9.27;66.86
61357;BME280;47227;46.752;23.576;2023-05-02T05:51:47;96755.95;;;9.38;67.11
61357;BME280;47227;46.752;23.576;2023-05-02T05:54:16;96753.38;;;9.50;67.11
61357;BME280;47227;46.752;23.576;2023-05-02T05:56:45;96753.64;;;9.62;66.28
61357;BME280;47227;46.752;23.576;2023-05-02T05:59:16;96755.69;;;9.74;65.83
61357;BME280;47227;46.752;23.576;2023-05-02T06:11:53;96756.17;;;10.39;63.78
61357;BME280;47227;46.752;23.576;2023-05-02T06:17:53;96751.79;;;10.72;63.29
61357;BME280;47227;46.752;23.576;2023-05-02T06:23:37;96751.67;;;10.92;62.61
61357;BME280;47227;46.752;23.576;2023-05-02T06:26:14;96756.44;;;11.05;62.76
61357;BME280;47227;46.752;23.576;2023-05-02T06:38:55;96751.69;;;11.79;62.04
61357;BME280;47227;46.752;23.576;2023-05-02T06:58:48;96741.61;;;12.94;59.77
61357;BME280;47227;46.752;23.576;2023-05-02T07:02:10;96744.52;;;13.14;59.70
61357;BME280;47227;46.752;23.576;2023-05-02T07:21:20;96745.67;;;14.50;57.07
61357;BME280;47227;46.752;23.576;2023-05-02T07:24:28;96752.02;;;14.71;56.65
61357;BME280;47227;46.752;23.576;2023-05-02T07:33:05;96753.71;;;15.18;55.03
61357;BME280;47227;46.752;23.576;2023-05-02T07:36:14;96752.11;;;15.34;49.11
61357;BME280;47227;46.752;23.576;2023-05-02T07:59:30;96760.80;;;16.80;41.73
61357;BME280;47227;46.752;23.576;2023-05-02T08:03:43;96752.88;;;17.02;43.36
61357;BME280;47227;46.752;23.576;2023-05-02T08:06:46;96754.56;;;17.18;43.14
61357;BME280;47227;46.752;23.576;2023-05-02T08:09:19;96756.11;;;17.36;43.84
61357;BME280;47227;46.752;23.576;2023-05-02T08:12:06;96757.39;;;17.53;43.90
61357;BME280;47227;46.752;23.576;2023-05-02T08:15:24;96756.16;;;17.78;44.10
61357;BME280;47227;46.752;23.576;2023-05-02T08:17:53;96754.48;;;17.92;43.36
61357;BME280;47227;46.752;23.576;2023-05-02T08:20:25;96754.54;;;18.02;42.87
61357;BME280;47227;46.752;23.576;2023-05-02T08:23:13;96755.30;;;18.13;42.67
61357;BME280;47227;46.752;23.576;2023-05-02T08:25:53;96759.09;;;18.25;42.29
61357;BME280;47227;46.752;23.576;2023-05-02T08:28:37;96763.08;;;18.34;42.20
61357;BME280;47227;46.752;23.576;2023-05-02T08:31:08;96767.34;;;18.41;41.41
61357;BME280;47227;46.752;23.576;2023-05-02T08:33:46;96769.68;;;18.41;39.24
61357;BME280;47227;46.752;23.576;2023-05-02T08:36:19;96772.19;;;18.36;38.18
61357;BME280;47227;46.752;23.576;2023-05-02T08:38:51;96769.83;;;18.29;38.77
61357;BME280;47227;46.752;23.576;2023-05-02T08:41:24;96769.16;;;18.27;38.77
61357;BME280;47227;46.752;23.576;2023-05-02T08:44:02;96761.63;;;18.22;38.27
61357;BME280;47227;46.752;23.576;2023-05-02T08:47:02;96762.34;;;18.20;38.80
61357;BME280;47227;46.752;23.576;2023-05-02T08:49:41;96762.94;;;18.24;39.23
61357;BME280;47227;46.752;23.576;2023-05-02T08:52:11;96759.90;;;18.28;39.17
61357;BME280;47227;46.752;23.576;2023-05-02T08:54:49;96758.17;;;18.35;39.38
61357;BME280;47227;46.752;23.576;2023-05-02T08:57:29;96755.83;;;18.44;39.31
61357;BME280;47227;46.752;23.576;2023-05-02T09:00:00;96754.23;;;18.52;38.66
61357;BME280;47227;46.752;23.576;2023-05-02T09:02:44;96750.38;;;18.63;39.04
61357;BME280;47227;46.752;23.576;2023-05-02T09:06:57;96750.77;;;18.81;39.16
61357;BME280;47227;46.752;23.576;2023-05-02T09:10:16;96755.64;;;19.02;38.82
61357;BME280;47227;46.752;23.576;2023-05-02T09:13:50;96753.50;;;19.13;37.76
61357;BME280;47227;46.752;23.576;2023-05-02T09:17:17;96756.21;;;19.23;37.39
61357;BME280;47227;46.752;23.576;2023-05-02T09:20:26;96756.20;;;19.31;37.36
61357;BME280;47227;46.752;23.576;2023-05-02T09:23:16;96753.14;;;19.48;37.67
61357;BME280;47227;46.752;23.576;2023-05-02T09:25:50;96753.75;;;19.62;37.64
61357;BME280;47227;46.752;23.576;2023-05-02T09:28:40;96747.15;;;19.76;36.98
61357;BME280;47227;46.752;23.576;2023-05-02T09:38:41;96738.91;;;20.03;35.66
61357;BME280;47227;46.752;23.576;2023-05-02T09:44:09;96733.10;;;20.19;34.99
61357;BME280;47227;46.752;23.576;2023-05-02T09:47:04;96735.82;;;20.27;34.41
61357;BME280;47227;46.752;23.576;2023-05-02T09:53:17;96729.20;;;20.45;35.03
61357;BME280;47227;46.752;23.576;2023-05-02T09:56:03;96728.45;;;20.64;34.59
61357;BME280;47227;46.752;23.576;2023-05-02T09:59:16;96723.95;;;20.82;34.47
61357;BME280;47227;46.752;23.576;2023-05-02T10:01:59;96714.11;;;21.01;34.73
61357;BME280;47227;46.752;23.576;2023-05-02T10:04:40;96708.55;;;21.17;33.49
61357;BME280;47227;46.752;23.576;2023-05-02T10:07:11;96706.63;;;21.29;32.63
61357;BME280;47227;46.752;23.576;2023-05-02T10:09:44;96707.08;;;21.34;32.05
61357;BME280;47227;46.752;23.576;2023-05-02T10:12:14;96701.33;;;21.35;32.05
61357;BME280;47227;46.752;23.576;2023-05-02T10:22:01;96685.33;;;21.91;31.31
61357;BME280;47227;46.752;23.576;2023-05-02T11:02:51;96661.45;;;24.90;22.89
61357;BME280;47227;46.752;23.576;2023-05-02T11:05:37;96665.23;;;25.17;22.87
61357;BME280;47227;46.752;23.576;2023-05-02T11:08:39;96661.64;;;25.40;22.49
61357;BME280;47227;46.752;23.576;2023-05-02T11:18:01;96651.73;;;25.98;21.55
61357;BME280;47227;46.752;23.576;2023-05-02T11:24:36;96653.41;;;26.60;20.21
61357;BME280;47227;46.752;23.576;2023-05-02T11:30:38;96649.77;;;27.37;20.20
61357;BME280;47227;46.752;23.576;2023-05-02T11:33:10;96643.59;;;27.58;19.52
61357;BME280;47227;46.752;23.576;2023-05-02T11:35:43;96648.84;;;27.85;19.76
61357;BME280;47227;46.752;23.576;2023-05-02T11:38:21;96645.36;;;28.11;18.71
61357;BME280;47227;46.752;23.576;2023-05-02T11:40:55;96641.35;;;28.18;18.09
61357;BME280;47227;46.752;23.576;2023-05-02T11:43:29;96639.02;;;28.40;18.61
61357;BME280;47227;46.752;23.576;2023-05-02T11:46:11;96633.56;;;28.70;19.06
61357;BME280;47227;46.752;23.576;2023-05-02T11:48:44;96632.52;;;28.89;17.91
61357;BME280;47227;46.752;23.576;2023-05-02T11:51:28;96629.73;;;29.27;18.41
61357;BME280;47227;46.752;23.576;2023-05-02T11:54:18;96631.02;;;29.72;18.31
61357;BME280;47227;46.752;23.576;2023-05-02T11:57:14;96621.81;;;29.97;17.59
61357;BME280;47227;46.752;23.576;2023-05-02T12:00:07;96621.13;;;29.98;17.01
61357;BME280;47227;46.752;23.576;2023-05-02T12:02:57;96622.17;;;29.96;17.51
61357;BME280;47227;46.752;23.576;2023-05-02T12:05:33;96622.30;;;30.05;17.64
61357;BME280;47227;46.752;23.576;2023-05-02T12:09:13;96616.48;;;30.08;17.70
61357;BME280;47227;46.752;23.576;2023-05-02T12:12:19;96618.25;;;29.96;17.97
61357;BME280;47227;46.752;23.576;2023-05-02T12:19:47;96610.55;;;29.15;18.24
61357;BME280;47227;46.752;23.576;2023-05-02T12:23:05;96611.80;;;28.87;18.43
61357;BME280;47227;46.752;23.576;2023-05-02T12:27:12;96607.54;;;28.98;18.80
61357;BME280;47227;46.752;23.576;2023-05-02T12:34:33;96598.08;;;29.65;18.49
61357;BME280;47227;46.752;23.576;2023-05-02T12:37:46;96595.17;;;30.11;18.31
61357;BME280;47227;46.752;23.576;2023-05-02T12:40:22;96589.83;;;30.33;18.17
61357;BME280;47227;46.752;23.576;2023-05-02T12:43:01;96590.30;;;30.60;17.63
61357;BME280;47227;46.752;23.576;2023-05-02T12:45:34;96586.05;;;30.54;17.45
61357;BME280;47227;46.752;23.576;2023-05-02T12:48:21;96580.11;;;30.55;17.11
61357;BME280;47227;46.752;23.576;2023-05-02T12:51:12;96575.04;;;30.85;17.14
61357;BME280;47227;46.752;23.576;2023-05-02T12:53:48;96574.48;;;30.92;17.28
61357;BME280;47227;46.752;23.576;2023-05-02T12:56:17;96565.37;;;31.03;16.90
61357;BME280;47227;46.752;23.576;2023-05-02T12:58:46;96572.05;;;31.13;16.87
61357;BME280;47227;46.752;23.576;2023-05-02T13:01:15;96562.65;;;31.30;17.17
61357;BME280;47227;46.752;23.576;2023-05-02T13:03:44;96557.30;;;31.73;17.09
61357;BME280;47227;46.752;23.576;2023-05-02T13:06:12;96554.84;;;32.00;17.19
61357;BME280;47227;46.752;23.576;2023-05-02T13:08:41;96557.27;;;32.20;16.88
61357;BME280;47227;46.752;23.576;2023-05-02T13:11:12;96562.09;;;32.44;16.40
61357;BME280;47227;46.752;23.576;2023-05-02T13:13:40;96558.48;;;32.37;16.23
61357;BME280;47227;46.752;23.576;2023-05-02T13:16:10;96564.99;;;32.54;16.53
61357;BME280;47227;46.752;23.576;2023-05-02T13:18:38;96561.42;;;32.87;16.32
61357;BME280;47227;46.752;23.576;2023-05-02T13:21:07;96559.67;;;33.12;16.14
61357;BME280;47227;46.752;23.576;2023-05-02T13:23:36;96553.14;;;33.06;15.78
61357;BME280;47227;46.752;23.576;2023-05-02T13:26:06;96549.42;;;33.14;15.56
61357;BME280;47227;46.752;23.576;2023-05-02T13:28:34;96549.66;;;33.28;15.34
61357;BME280;47227;46.752;23.576;2023-05-02T13:31:04;96544.38;;;33.26;15.11
61357;BME280;47227;46.752;23.576;2023-05-02T13:33:32;96540.61;;;33.66;15.52
61357;BME280;47227;46.752;23.576;2023-05-02T13:36:03;96537.21;;;33.90;14.92
61357;BME280;47227;46.752;23.576;2023-05-02T13:38:31;96538.23;;;34.13;14.74
61357;BME280;47227;46.752;23.576;2023-05-02T13:41:02;96536.87;;;34.41;14.80
61357;BME280;47227;46.752;23.576;2023-05-02T13:43:34;96532.94;;;34.64;14.06
61357;BME280;47227;46.752;23.576;2023-05-02T13:46:34;96528.20;;;34.47;13.36
61357;BME280;47227;46.752;23.576;2023-05-02T13:49:04;96526.06;;;34.38;13.15
61357;BME280;47227;46.752;23.576;2023-05-02T13:51:32;96522.52;;;34.62;13.47
61357;BME280;47227;46.752;23.576;2023-05-02T13:54:01;96521.73;;;34.69;13.54
61357;BME280;47227;46.752;23.576;2023-05-02T13:56:32;96520.41;;;34.63;13.91
61357;BME280;47227;46.752;23.576;2023-05-02T13:59:00;96514.73;;;34.62;14.06
61357;BME280;47227;46.752;23.576;2023-05-02T14:01:48;96516.46;;;34.62;14.34
61357;BME280;47227;46.752;23.576;2023-05-02T14:04:39;96516.33;;;34.82;14.09
61357;BME280;47227;46.752;23.576;2023-05-02T14:07:44;96514.25;;;34.77;13.47
61357;BME280;47227;46.752;23.576;2023-05-02T14:10:54;96514.80;;;34.51;13.11
61357;BME280;47227;46.752;23.576;2023-05-02T14:14:02;96516.14;;;34.32;13.27
61357;BME280;47227;46.752;23.576;2023-05-02T14:16:52;96515.61;;;34.12;13.38
61357;BME280;47227;46.752;23.576;2023-05-02T14:19:26;96516.25;;;33.86;13.53
61357;BME280;47227;46.752;23.576;2023-05-02T14:21:58;96514.87;;;33.78;13.59
61357;BME280;47227;46.752;23.576;2023-05-02T14:25:26;96512.26;;;33.90;13.83
61357;BME280;47227;46.752;23.576;2023-05-02T14:28:12;96516.81;;;33.97;13.87
61357;BME280;47227;46.752;23.576;2023-05-02T14:31:10;96517.88;;;34.05;13.71
61357;BME280;47227;46.752;23.576;2023-05-02T14:34:32;96520.02;;;34.16;13.62
61357;BME280;47227;46.752;23.576;2023-05-02T14:37:30;96515.71;;;34.23;13.32
61357;BME280;47227;46.752;23.576;2023-05-02T14:40:28;96514.61;;;34.27;13.19
61357;BME280;47227;46.752;23.576;2023-05-02T14:43:15;96514.55;;;34.36;12.90
61357;BME280;47227;46.752;23.576;2023-05-02T14:46:03;96518.05;;;34.24;12.81
61357;BME280;47227;46.752;23.576;2023-05-02T14:48:50;96518.54;;;33.97;12.81
61357;BME280;47227;46.752;23.576;2023-05-02T14:56:10;96515.46;;;33.40;13.22
61357;BME280;47227;46.752;23.576;2023-05-02T14:59:16;96515.38;;;33.49;12.89
61357;BME280;47227;46.752;23.576;2023-05-02T15:01:50;96513.27;;;33.64;12.98
61357;BME280;47227;46.752;23.576;2023-05-02T15:04:23;96516.30;;;33.66;13.08
61357;BME280;47227;46.752;23.576;2023-05-02T15:06:54;96514.66;;;33.58;12.98
61357;BME280;47227;46.752;23.576;2023-05-02T15:09:23;96515.00;;;33.44;13.07
61357;BME280;47227;46.752;23.576;2023-05-02T15:11:55;96515.48;;;33.33;13.21
61357;BME280;47227;46.752;23.576;2023-05-02T15:14:23;96516.00;;;33.45;12.86
61357;BME280;47227;46.752;23.576;2023-05-02T15:16:51;96514.60;;;33.58;12.99
61357;BME280;47227;46.752;23.576;2023-05-02T15:19:19;96513.46;;;33.20;12.88
61357;BME280;47227;46.752;23.576;2023-05-02T15:21:50;96511.89;;;32.90;12.67
61357;BME280;47227;46.752;23.576;2023-05-02T15:24:19;96511.09;;;32.64;12.89
61357;BME280;47227;46.752;23.576;2023-05-02T15:26:47;96513.28;;;32.40;13.67
61357;BME280;47227;46.752;23.576;2023-05-02T15:29:16;96511.14;;;32.25;14.12
61357;BME280;47227;46.752;23.576;2023-05-02T15:31:44;96509.26;;;32.01;13.88
61357;BME280;47227;46.752;23.576;2023-05-02T15:34:12;96507.34;;;31.90;13.88
61357;BME280;47227;46.752;23.576;2023-05-02T15:36:40;96504.38;;;31.69;13.81
61357;BME280;47227;46.752;23.576;2023-05-02T15:39:09;96502.73;;;31.32;14.07
61357;BME280;47227;46.752;23.576;2023-05-02T15:41:37;96502.67;;;30.95;14.00
61357;BME280;47227;46.752;23.576;2023-05-02T15:44:16;96502.15;;;30.80;14.32
61357;BME280;47227;46.752;23.576;2023-05-02T15:46:44;96505.69;;;30.84;14.21
61357;BME280;47227;46.752;23.576;2023-05-02T15:49:13;96504.34;;;30.81;13.93
61357;BME280;47227;46.752;23.576;2023-05-02T15:51:41;96503.11;;;30.82;14.21
61357;BME280;47227;46.752;23.576;2023-05-02T15:54:10;96503.32;;;30.72;14.25
61357;BME280;47227;46.752;23.576;2023-05-02T15:56:38;96504.13;;;30.60;14.23
61357;BME280;47227;46.752;23.576;2023-05-02T15:59:06;96503.11;;;30.67;14.45
61357;BME280;47227;46.752;23.576;2023-05-02T16:01:34;96506.34;;;30.35;14.36
61357;BME280;47227;46.752;23.576;2023-05-02T16:04:01;96508.06;;;30.15;14.49
61357;BME280;47227;46.752;23.576;2023-05-02T16:06:32;96508.31;;;29.98;14.65
61357;BME280;47227;46.752;23.576;2023-05-02T16:09:02;96506.61;;;29.74;14.82
61357;BME280;47227;46.752;23.576;2023-05-02T16:11:31;96506.37;;;29.67;15.05
61357;BME280;47227;46.752;23.576;2023-05-02T16:13:59;96504.13;;;29.67;15.12
61357;BME280;47227;46.752;23.576;2023-05-02T16:16:27;96501.61;;;29.82;15.11
61357;BME280;47227;46.752;23.576;2023-05-02T16:18:55;96501.50;;;30.18;15.08
61357;BME280;47227;46.752;23.576;2023-05-02T16:21:24;96499.48;;;30.45;14.84
61357;BME280;47227;46.752;23.576;2023-05-02T16:23:52;96499.31;;;30.16;14.70
61357;BME280;47227;46.752;23.576;2023-05-02T16:26:22;96501.59;;;29.70;15.13
61357;BME280;47227;46.752;23.576;2023-05-02T16:31:31;96505.73;;;28.87;16.04
61357;BME280;47227;46.752;23.576;2023-05-02T16:33:59;96505.45;;;28.88;16.41
61357;BME280;47227;46.752;23.576;2023-05-02T16:36:27;96503.39;;;29.03;16.34
61357;BME280;47227;46.752;23.576;2023-05-02T16:38:56;96505.33;;;28.91;16.48
61357;BME280;47227;46.752;23.576;2023-05-02T16:41:24;96504.05;;;29.01;16.47
61357;BME280;47227;46.752;23.576;2023-05-02T16:43:52;96502.86;;;29.00;16.69
61357;BME280;47227;46.752;23.576;2023-05-02T16:46:20;96502.80;;;28.91;16.41
61357;BME280;47227;46.752;23.576;2023-05-02T16:48:48;96504.48;;;28.81;16.28
61357;BME280;47227;46.752;23.576;2023-05-02T16:51:16;96507.21;;;28.69;16.53
61357;BME280;47227;46.752;23.576;2023-05-02T16:53:45;96505.09;;;28.58;16.62
61357;BME280;47227;46.752;23.576;2023-05-02T16:56:13;96506.69;;;28.49;16.55
61357;BME280;47227;46.752;23.576;2023-05-02T16:58:41;96505.92;;;28.29;16.69
61357;BME280;47227;46.752;23.576;2023-05-02T17:01:09;96507.23;;;27.94;17.14
61357;BME280;47227;46.752;23.576;2023-05-02T17:03:38;96501.72;;;27.52;17.27
61357;BME280;47227;46.752;23.576;2023-05-02T17:06:07;96504.66;;;27.13;17.80
61357;BME280;47227;46.752;23.576;2023-05-02T17:08:35;96505.52;;;26.49;18.27
61357;BME280;47227;46.752;23.576;2023-05-02T17:11:03;96504.45;;;25.90;18.66
61357;BME280;47227;46.752;23.576;2023-05-02T17:13:33;96507.05;;;25.40;19.34
61357;BME280;47227;46.752;23.576;2023-05-02T17:16:01;96507.20;;;24.85;19.82
61357;BME280;47227;46.752;23.576;2023-05-02T17:18:30;96516.21;;;24.24;21.31
61357;BME280;47227;46.752;23.576;2023-05-02T17:20:58;96514.73;;;23.76;22.46
61357;BME280;47227;46.752;23.576;2023-05-02T17:23:28;96514.27;;;23.32;22.86
61357;BME280;47227;46.752;23.576;2023-05-02T17:25:56;96513.55;;;22.83;22.09
61357;BME280;47227;46.752;23.576;2023-05-02T17:28:25;96512.08;;;22.35;22.32
61357;BME280;47227;46.752;23.576;2023-05-02T17:30:52;96514.84;;;21.96;22.43
61357;BME280;47227;46.752;23.576;2023-05-02T17:33:22;96516.63;;;21.58;22.93
61357;BME280;47227;46.752;23.576;2023-05-02T17:35:52;96520.73;;;21.18;23.45
61357;BME280;47227;46.752;23.576;2023-05-02T17:38:20;96517.84;;;20.87;23.42
61357;BME280;47227;46.752;23.576;2023-05-02T17:40:48;96521.90;;;20.55;23.77
61357;BME280;47227;46.752;23.576;2023-05-02T17:43:16;96522.48;;;20.30;24.04
61357;BME280;47227;46.752;23.576;2023-05-02T17:45:44;96520.11;;;20.06;24.33
61357;BME280;47227;46.752;23.576;2023-05-02T17:48:12;96523.96;;;19.82;24.64
61357;BME280;47227;46.752;23.576;2023-05-02T17:50:40;96521.38;;;19.62;24.72
61357;BME280;47227;46.752;23.576;2023-05-02T17:53:08;96525.71;;;19.43;24.96
61357;BME280;47227;46.752;23.576;2023-05-02T17:55:37;96528.51;;;19.29;24.99
61357;BME280;47227;46.752;23.576;2023-05-02T17:58:05;96528.77;;;19.13;25.36
61357;BME280;47227;46.752;23.576;2023-05-02T18:00:34;96527.52;;;18.97;25.56
61357;BME280;47227;46.752;23.576;2023-05-02T18:03:03;96528.11;;;18.82;25.55
61357;BME280;47227;46.752;23.576;2023-05-02T18:05:36;96529.54;;;18.69;25.60
61357;BME280;47227;46.752;23.576;2023-05-02T18:08:05;96533.33;;;18.58;25.50
61357;BME280;47227;46.752;23.576;2023-05-02T18:10:36;96534.79;;;18.48;25.65
61357;BME280;47227;46.752;23.576;2023-05-02T18:13:04;96535.14;;;18.38;25.90
61357;BME280;47227;46.752;23.576;2023-05-02T18:15:32;96536.48;;;18.31;25.74
61357;BME280;47227;46.752;23.576;2023-05-02T18:18:00;96534.27;;;18.23;26.01
61357;BME280;47227;46.752;23.576;2023-05-02T18:20:28;96535.36;;;18.15;26.25
61357;BME280;47227;46.752;23.576;2023-05-02T18:22:56;96536.34;;;18.07;26.37
61357;BME280;47227;46.752;23.576;2023-05-02T18:25:25;96537.61;;;17.99;26.39
61357;BME280;47227;46.752;23.576;2023-05-02T18:27:53;96542.59;;;17.93;26.41
61357;BME280;47227;46.752;23.576;2023-05-02T18:30:21;96548.10;;;17.89;26.38
61357;BME280;47227;46.752;23.576;2023-05-02T18:32:49;96545.02;;;17.86;26.38
61357;BME280;47227;46.752;23.576;2023-05-02T18:35:17;96545.92;;;17.83;26.40
61357;BME280;47227;46.752;23.576;2023-05-02T18:37:45;96553.29;;;17.78;26.44
61357;BME280;47227;46.752;23.576;2023-05-02T18:40:14;96556.73;;;17.73;26.73
61357;BME280;47227;46.752;23.576;2023-05-02T18:42:42;96559.88;;;17.67;26.88
61357;BME280;47227;46.752;23.576;2023-05-02T18:45:10;96560.72;;;17.60;27.16
61357;BME280;47227;46.752;23.576;2023-05-02T18:47:38;96559.59;;;17.53;27.29
61357;BME280;47227;46.752;23.576;2023-05-02T18:50:07;96564.23;;;17.46;27.62
61357;BME280;47227;46.752;23.576;2023-05-02T18:52:35;96566.74;;;17.40;27.81
61357;BME280;47227;46.752;23.576;2023-05-02T18:55:03;96570.46;;;17.34;27.88
61357;BME280;47227;46.752;23.576;2023-05-02T18:57:32;96571.45;;;17.28;28.09
61357;BME280;47227;46.752;23.576;2023-05-02T19:00:01;96572.64;;;17.21;28.27
61357;BME280;47227;46.752;23.576;2023-05-02T19:02:33;96573.45;;;17.14;28.55
61357;BME280;47227;46.752;23.576;2023-05-02T19:05:06;96577.16;;;17.08;28.57
61357;BME280;47227;46.752;23.576;2023-05-02T19:07:34;96578.45;;;17.02;28.78
61357;BME280;47227;46.752;23.576;2023-05-02T19:10:05;96581.30;;;16.98;29.12
61357;BME280;47227;46.752;23.576;2023-05-02T19:12:33;96582.97;;;16.95;29.25
61357;BME280;47227;46.752;23.576;2023-05-02T19:15:01;96584.27;;;16.93;29.45
61357;BME280;47227;46.752;23.576;2023-05-02T19:17:30;96579.52;;;16.90;29.55
61357;BME280;47227;46.752;23.576;2023-05-02T19:19:58;96579.48;;;16.85;29.47
61357;BME280;47227;46.752;23.576;2023-05-02T19:22:26;96580.52;;;16.81;29.73
61357;BME280;47227;46.752;23.576;2023-05-02T19:24:54;96585.30;;;16.76;29.70
61357;BME280;47227;46.752;23.576;2023-05-02T19:27:22;96586.98;;;16.70;29.66
61357;BME280;47227;46.752;23.576;2023-05-02T19:29:52;96589.55;;;16.62;29.85
61357;BME280;47227;46.752;23.576;2023-05-02T19:32:21;96594.42;;;16.55;30.15
61357;BME280;47227;46.752;23.576;2023-05-02T19:34:50;96596.86;;;16.47;30.13
61357;BME280;47227;46.752;23.576;2023-05-02T19:37:17;96599.20;;;16.39;30.38
61357;BME280;47227;46.752;23.576;2023-05-02T19:39:45;96602.81;;;16.30;30.67
61357;BME280;47227;46.752;23.576;2023-05-02T19:42:13;96602.67;;;16.21;30.88
61357;BME280;47227;46.752;23.576;2023-05-02T19:44:41;96605.52;;;16.13;30.89
61357;BME280;47227;46.752;23.576;2023-05-02T19:47:09;96609.55;;;16.04;31.07
61357;BME280;47227;46.752;23.576;2023-05-02T19:49:37;96611.96;;;15.96;31.27
61357;BME280;47227;46.752;23.576;2023-05-02T19:52:05;96611.21;;;15.89;31.69
61357;BME280;47227;46.752;23.576;2023-05-02T19:54:34;96614.15;;;15.83;31.91
61357;BME280;47227;46.752;23.576;2023-05-02T19:57:02;96616.40;;;15.77;31.64
61357;BME280;47227;46.752;23.576;2023-05-02T19:59:31;96615.30;;;15.74;32.33
61357;BME280;47227;46.752;23.576;2023-05-02T20:01:59;96619.70;;;15.70;32.25
61357;BME280;47227;46.752;23.576;2023-05-02T20:04:27;96621.33;;;15.65;32.49
61357;BME280;47227;46.752;23.576;2023-05-02T20:06:54;96620.88;;;15.61;32.96
61357;BME280;47227;46.752;23.576;2023-05-02T20:09:22;96622.48;;;15.57;33.03
61357;BME280;47227;46.752;23.576;2023-05-02T20:11:50;96630.11;;;15.53;32.74
61357;BME280;47227;46.752;23.576;2023-05-02T20:14:18;96629.70;;;15.51;32.99
61357;BME280;47227;46.752;23.576;2023-05-02T20:16:46;96628.39;;;15.46;32.85
61357;BME280;47227;46.752;23.576;2023-05-02T20:19:14;96631.89;;;15.40;32.76
61357;BME280;47227;46.752;23.576;2023-05-02T20:21:43;96632.55;;;15.34;32.90
61357;BME280;47227;46.752;23.576;2023-05-02T20:24:11;96629.75;;;15.26;33.15
61357;BME280;47227;46.752;23.576;2023-05-02T20:26:39;96630.67;;;15.19;33.64
61357;BME280;47227;46.752;23.576;2023-05-02T20:29:07;96634.77;;;15.10;33.83
61357;BME280;47227;46.752;23.576;2023-05-02T20:31:37;96634.88;;;15.02;33.81
61357;BME280;47227;46.752;23.576;2023-05-02T20:34:06;96634.88;;;14.94;34.02
61357;BME280;47227;46.752;23.576;2023-05-02T20:36:34;96639.08;;;14.86;34.16
61357;BME280;47227;46.752;23.576;2023-05-02T20:39:02;96641.55;;;14.80;34.17
61357;BME280;47227;46.752;23.576;2023-05-02T20:41:31;96640.23;;;14.72;35.32
61357;BME280;47227;46.752;23.576;2023-05-02T20:44:02;96636.91;;;14.62;35.14
61357;BME280;47227;46.752;23.576;2023-05-02T20:46:30;96634.04;;;14.54;35.13
61357;BME280;47227;46.752;23.576;2023-05-02T20:48:58;96637.39;;;14.47;35.40
61357;BME280;47227;46.752;23.576;2023-05-02T20:51:26;96634.32;;;14.42;35.08
61357;BME280;47227;46.752;23.576;2023-05-02T20:53:58;96638.66;;;14.38;35.11
61357;BME280;47227;46.752;23.576;2023-05-02T20:56:26;96632.89;;;14.36;35.03
61357;BME280;47227;46.752;23.576;2023-05-02T20:58:54;96632.65;;;14.40;35.40
61357;BME280;47227;46.752;23.576;2023-05-02T21:01:23;96638.17;;;14.45;35.07
61357;BME280;47227;46.752;23.576;2023-05-02T21:03:51;96637.34;;;14.50;35.15
61357;BME280;47227;46.752;23.576;2023-05-02T21:06:19;96643.38;;;14.51;34.93